createdAt,value
2023-02-12T00:00:49.887Z,8.5
2023-02-12T00:01:57.184Z,8.5
2023-02-12T00:03:04.030Z,8.6
2023-02-12T00:04:10.696Z,8.6
2023-02-12T00:05:17.794Z,8.6
2023-02-12T00:06:24.870Z,8.6
2023-02-12T00:07:32.000Z,8.6
2023-02-12T00:08:39.060Z,8.6
2023-02-12T00:09:45.637Z,8.6
2023-02-12T00:10:52.853Z,8.6
2023-02-12T00:11:59.857Z,8.6
2023-02-12T00:13:07.035Z,8.6
2023-02-12T00:14:13.566Z,8.6
2023-02-12T00:15:20.661Z,8.6
2023-02-12T00:16:27.881Z,8.6
2023-02-12T00:17:34.867Z,8.6
2023-02-12T00:19:49.111Z,8.6
2023-02-12T00:20:55.663Z,8.6
2023-02-12T00:22:02.903Z,8.6
2023-02-12T00:23:09.870Z,8.6
2023-02-12T00:24:17.014Z,8.6
2023-02-12T00:25:24.118Z,8.6
2023-02-12T00:26:30.690Z,8.6
2023-02-12T00:27:37.772Z,8.6
2023-02-12T00:28:44.864Z,8.6
2023-02-12T00:29:52.002Z,8.6
2023-02-12T00:30:58.766Z,8.6
2023-02-12T00:32:05.663Z,8.6
2023-02-12T00:33:12.763Z,8.6
2023-02-12T00:34:19.911Z,8.6
2023-02-12T00:35:27.007Z,8.6
2023-02-12T00:37:40.761Z,8.6
2023-02-12T00:38:47.808Z,8.6
2023-02-12T00:39:54.899Z,8.6
2023-02-12T00:41:02.067Z,8.6
2023-02-12T00:42:08.583Z,8.6
2023-02-12T00:43:15.663Z,8.6
2023-02-12T00:44:22.818Z,8.6
2023-02-12T00:45:29.908Z,8.6
2023-02-12T00:46:37.125Z,8.6
2023-02-12T00:47:43.643Z,8.6
2023-02-12T00:48:50.699Z,8.6
2023-02-12T00:49:57.902Z,8.6
2023-02-12T00:51:04.900Z,8.6
2023-02-12T00:52:12.043Z,8.6
2023-02-12T00:53:18.564Z,8.6
2023-02-12T00:53:18.598Z,8.6
2023-02-12T00:54:25.733Z,8.6
2023-02-12T00:55:33.326Z,8.6
2023-02-12T00:56:40.458Z,8.6
2023-02-12T00:57:47.068Z,8.5
2023-02-12T00:58:53.580Z,8.6
2023-02-12T01:00:00.740Z,8.6
2023-02-12T01:01:07.912Z,8.6
2023-02-12T01:02:14.943Z,8.6
2023-02-12T01:03:22.120Z,8.6
2023-02-12T01:04:28.600Z,8.6
2023-02-12T01:05:35.729Z,8.6
2023-02-12T01:06:42.844Z,8.6
2023-02-12T01:07:49.986Z,8.6
2023-02-12T01:08:57.076Z,8.6
2023-02-12T01:10:03.595Z,8.6
2023-02-12T01:11:10.771Z,8.6
2023-02-12T01:12:17.942Z,8.6
2023-02-12T01:13:25.008Z,8.6
2023-02-12T01:14:32.083Z,8.6
2023-02-12T01:15:38.666Z,8.6
2023-02-12T01:16:45.718Z,8.6
2023-02-12T01:17:52.871Z,8.6
2023-02-12T01:18:59.981Z,8.6
2023-02-12T01:20:07.118Z,8.6
2023-02-12T01:21:13.612Z,8.6
2023-02-12T01:22:20.795Z,8.6
2023-02-12T01:23:27.891Z,8.5
2023-02-12T01:24:34.974Z,8.6
2023-02-12T01:25:41.586Z,8.6
2023-02-12T01:26:48.756Z,8.6
2023-02-12T01:27:55.754Z,8.6
2023-02-12T01:29:02.894Z,8.6
2023-02-12T01:30:10.021Z,8.6
2023-02-12T01:31:17.275Z,8.6
2023-02-12T01:32:23.740Z,8.5
2023-02-12T01:33:30.797Z,8.5
2023-02-12T01:34:37.371Z,8.6
2023-02-12T01:34:37.891Z,8.6
2023-02-12T01:35:46.680Z,8.5
2023-02-12T01:36:51.589Z,8.5
2023-02-12T01:37:58.702Z,8.5
2023-02-12T01:39:05.755Z,8.6
2023-02-12T01:41:20.031Z,8.5
2023-02-12T01:42:26.644Z,8.5
2023-02-12T01:43:33.647Z,8.5
2023-02-12T01:44:40.778Z,8.5
2023-02-12T01:45:47.921Z,8.5
2023-02-12T01:48:01.634Z,8.5
2023-02-12T01:49:08.733Z,8.6
2023-02-12T01:50:15.821Z,8.5
2023-02-12T01:51:22.866Z,8.6
2023-02-12T01:52:30.034Z,8.6
2023-02-12T01:53:36.589Z,8.6
2023-02-12T01:54:43.691Z,8.6
2023-02-12T01:55:50.830Z,8.6
2023-02-12T01:56:57.918Z,8.6
2023-02-12T01:58:05.111Z,8.6
2023-02-12T01:59:12.610Z,8.6
2023-02-12T02:00:18.742Z,8.6
2023-02-12T02:01:25.868Z,8.6
2023-02-12T02:02:32.899Z,8.6
2023-02-12T02:03:40.064Z,8.6
2023-02-12T02:04:46.635Z,8.6
2023-02-12T02:05:54.081Z,8.5
2023-02-12T02:07:00.856Z,8.6
2023-02-12T02:08:07.992Z,8.6
2023-02-12T02:09:14.987Z,8.6
2023-02-12T02:10:21.656Z,8.6
2023-02-12T02:11:28.737Z,8.5
2023-02-12T02:12:35.847Z,8.6
2023-02-12T02:13:42.901Z,8.6
2023-02-12T02:14:50.159Z,8.5
2023-02-12T02:15:56.901Z,8.6
2023-02-12T02:17:03.742Z,8.6
2023-02-12T02:18:10.871Z,8.6
2023-02-12T02:19:17.964Z,8.6
2023-02-12T02:20:25.055Z,8.6
2023-02-12T02:21:31.629Z,8.6
2023-02-12T02:22:38.736Z,8.6
2023-02-12T02:23:45.846Z,8.6
2023-02-12T02:24:53.334Z,8.6
2023-02-12T02:26:00.085Z,8.6
2023-02-12T02:27:06.750Z,8.6
2023-02-12T02:28:13.776Z,8.6
2023-02-12T02:29:20.848Z,8.6
2023-02-12T02:30:27.955Z,8.6
2023-02-12T02:31:35.145Z,8.6
2023-02-12T02:32:41.719Z,8.6
2023-02-12T02:33:48.787Z,8.6
2023-02-12T02:34:55.886Z,8.6
2023-02-12T02:36:02.956Z,8.6
2023-02-12T02:37:09.597Z,8.6
2023-02-12T02:38:16.732Z,8.6
2023-02-12T02:39:23.783Z,8.6
2023-02-12T02:40:30.871Z,8.6
2023-02-12T02:41:37.985Z,8.6
2023-02-12T02:42:45.037Z,8.6
2023-02-12T02:44:58.795Z,8.6
2023-02-12T02:46:05.840Z,8.6
2023-02-12T02:47:12.945Z,8.6
2023-02-12T02:48:19.667Z,8.6
2023-02-12T02:49:26.697Z,8.6
2023-02-12T02:50:33.737Z,8.6
2023-02-12T02:51:40.985Z,8.6
2023-02-12T02:52:47.984Z,8.5
2023-02-12T02:53:54.567Z,8.5
2023-02-12T02:55:01.632Z,8.5
2023-02-12T02:56:08.962Z,8.5
2023-02-12T02:57:15.351Z,8.5
2023-02-12T02:57:15.873Z,8.5
2023-02-12T02:58:23.032Z,8.5
2023-02-12T02:59:29.567Z,8.5
2023-02-12T03:00:36.791Z,8.5
2023-02-12T03:01:43.805Z,8.5
2023-02-12T03:02:51.581Z,8.5
2023-02-12T03:03:58.029Z,8.5
2023-02-12T03:05:04.548Z,8.5
2023-02-12T03:06:11.695Z,8.5
2023-02-12T03:07:18.837Z,8.5
2023-02-12T03:08:25.929Z,8.5
2023-02-12T03:09:33.003Z,8.5
2023-02-12T03:10:39.616Z,8.5
2023-02-12T03:11:46.722Z,8.5
2023-02-12T03:12:53.760Z,8.6
2023-02-12T03:14:00.917Z,8.5
2023-02-12T03:15:08.047Z,8.6
2023-02-12T03:16:14.620Z,8.6
2023-02-12T03:17:21.779Z,8.6
2023-02-12T03:18:28.904Z,8.5
2023-02-12T03:19:35.932Z,8.5
2023-02-12T03:20:42.973Z,8.6
2023-02-12T03:21:49.625Z,8.6
2023-02-12T03:22:56.729Z,8.6
2023-02-12T03:24:03.845Z,8.6
2023-02-12T03:25:10.955Z,8.6
2023-02-12T03:26:18.007Z,8.6
2023-02-12T03:27:24.609Z,8.6
2023-02-12T03:28:31.733Z,8.6
2023-02-12T03:29:38.841Z,8.6
2023-02-12T03:30:46.003Z,8.6
2023-02-12T03:31:53.100Z,8.6
2023-02-12T03:32:59.704Z,8.6
2023-02-12T03:34:06.724Z,8.6
2023-02-12T03:35:13.819Z,8.6
2023-02-12T03:36:20.952Z,8.6
2023-02-12T03:37:28.058Z,8.6
2023-02-12T03:38:34.621Z,8.6
2023-02-12T03:39:41.758Z,8.6
2023-02-12T03:40:48.849Z,8.6
2023-02-12T03:41:55.997Z,8.5
2023-02-12T03:43:03.088Z,8.5
2023-02-12T03:44:09.651Z,8.6
2023-02-12T03:45:16.740Z,8.6
2023-02-12T03:46:23.922Z,8.6
2023-02-12T03:48:38.089Z,8.6
2023-02-12T03:49:44.636Z,8.6
2023-02-12T03:50:51.782Z,8.6
2023-02-12T03:51:58.885Z,8.6
2023-02-12T03:53:06.025Z,8.6
2023-02-12T03:54:13.050Z,8.6
2023-02-12T03:55:19.671Z,8.6
2023-02-12T03:56:26.810Z,8.6
2023-02-12T03:57:33.869Z,8.6
2023-02-12T03:58:40.958Z,8.6
2023-02-12T03:59:47.578Z,8.6
2023-02-12T04:00:54.650Z,8.6
2023-02-12T04:02:01.882Z,8.6
2023-02-12T04:03:08.974Z,8.6
2023-02-12T04:04:16.045Z,8.6
2023-02-12T04:05:22.572Z,8.6
2023-02-12T04:06:30.206Z,8.6
2023-02-12T04:07:36.760Z,8.6
2023-02-12T04:08:43.885Z,8.6
2023-02-12T04:09:50.972Z,8.5
2023-02-12T04:10:57.601Z,8.6
2023-02-12T04:12:04.633Z,8.6
2023-02-12T04:13:11.778Z,8.5
2023-02-12T04:14:18.885Z,8.5
2023-02-12T04:15:26.010Z,8.5
2023-02-12T04:16:33.149Z,8.5
2023-02-12T04:17:39.675Z,8.5
2023-02-12T04:18:46.796Z,8.5
2023-02-12T04:19:53.496Z,8.4
2023-02-12T04:19:53.896Z,8.4
2023-02-12T04:21:00.990Z,8.4
2023-02-12T04:22:07.616Z,8.4
2023-02-12T04:23:14.738Z,8.4
2023-02-12T04:24:21.814Z,8.4
2023-02-12T04:25:28.934Z,8.4
2023-02-12T04:26:35.992Z,8.4
2023-02-12T04:27:42.582Z,8.4
2023-02-12T04:28:49.728Z,8.4
2023-02-12T04:29:56.826Z,8.4
2023-02-12T04:31:04.131Z,8.4
2023-02-12T04:32:11.034Z,8.4
2023-02-12T04:33:17.683Z,8.4
2023-02-12T04:34:24.688Z,8.4
2023-02-12T04:35:31.842Z,8.4
2023-02-12T04:36:38.904Z,8.4
2023-02-12T04:37:45.494Z,8.4
2023-02-12T04:38:52.570Z,8.4
2023-02-12T04:39:59.728Z,8.4
2023-02-12T04:41:06.889Z,8.4
2023-02-12T04:42:13.890Z,8.3
2023-02-12T04:43:21.149Z,8.3
2023-02-12T04:44:27.578Z,8.3
2023-02-12T04:45:34.680Z,8.3
2023-02-12T04:46:41.849Z,8.3
2023-02-12T04:47:48.968Z,8.3
2023-02-12T04:48:56.026Z,8.3
2023-02-12T04:50:02.600Z,8.3
2023-02-12T04:52:16.858Z,8.2
2023-02-12T04:53:24.003Z,8.2
2023-02-12T04:54:31.053Z,8.2
2023-02-12T04:55:37.638Z,8.2
2023-02-12T04:56:44.732Z,8.2
2023-02-12T04:57:51.850Z,8.2
2023-02-12T04:58:58.994Z,8.2
2023-02-12T05:00:06.061Z,8.2
2023-02-12T05:01:12.693Z,8.2
2023-02-12T05:02:19.771Z,8.2
2023-02-12T05:03:26.921Z,8.2
2023-02-12T05:04:33.949Z,8.2
2023-02-12T05:05:41.097Z,8.2
2023-02-12T05:06:47.607Z,8.2
2023-02-12T05:07:54.751Z,8.2
2023-02-12T05:09:01.871Z,8.2
2023-02-12T05:10:09.552Z,8.1
2023-02-12T05:11:15.550Z,8.1
2023-02-12T05:12:22.649Z,8.1
2023-02-12T05:13:29.856Z,8.1
2023-02-12T05:14:36.862Z,8.1
2023-02-12T05:15:46.814Z,8.1
2023-02-12T05:16:50.547Z,8.1
2023-02-12T05:17:57.795Z,8.1
2023-02-12T05:19:04.760Z,8.1
2023-02-12T05:21:18.979Z,8.1
2023-02-12T05:22:25.549Z,8.1
2023-02-12T05:23:32.704Z,8.1
2023-02-12T05:24:39.778Z,8.1
2023-02-12T05:25:46.841Z,8.1
2023-02-12T05:26:53.971Z,8.1
2023-02-12T05:28:00.650Z,8.1
2023-02-12T05:29:07.847Z,8.1
2023-02-12T05:30:14.807Z,8.1
2023-02-12T05:31:22.031Z,8.1
2023-02-12T05:32:29.040Z,8.1
2023-02-12T05:33:35.638Z,8.1
2023-02-12T05:34:42.689Z,8
2023-02-12T05:35:49.751Z,8.1
2023-02-12T05:36:56.904Z,8.1
2023-02-12T05:38:03.987Z,8.1
2023-02-12T05:39:10.611Z,8.1
2023-02-12T05:40:17.704Z,8.1
2023-02-12T05:41:24.805Z,8.1
2023-02-12T05:42:31.914Z,8.1
2023-02-12T05:43:39.058Z,8
2023-02-12T05:44:45.575Z,8
2023-02-12T05:45:52.695Z,8.1
2023-02-12T05:46:59.866Z,8
2023-02-12T05:48:06.944Z,8
2023-02-12T05:49:14.013Z,8.1
2023-02-12T05:50:20.604Z,8.1
2023-02-12T05:51:27.712Z,8
2023-02-12T05:52:34.804Z,8
2023-02-12T05:53:41.986Z,8
2023-02-12T05:55:55.950Z,8
2023-02-12T05:57:02.709Z,8
2023-02-12T05:58:09.813Z,8
2023-02-12T05:59:16.930Z,8
2023-02-12T06:00:23.990Z,8
2023-02-12T06:01:30.650Z,8
2023-02-12T06:02:37.802Z,8
2023-02-12T06:03:44.933Z,8.1
2023-02-12T06:04:51.937Z,8
2023-02-12T06:05:59.052Z,8
2023-02-12T06:07:05.605Z,8.1
2023-02-12T06:08:12.723Z,8
2023-02-12T06:09:19.843Z,8.1
2023-02-12T06:10:26.927Z,8.1
2023-02-12T06:11:33.533Z,8
2023-02-12T06:12:40.635Z,8
2023-02-12T06:13:48.300Z,8.1
2023-02-12T06:14:54.833Z,8
2023-02-12T06:16:02.170Z,8
2023-02-12T06:17:09.199Z,8
2023-02-12T06:18:15.636Z,8
2023-02-12T06:19:22.714Z,8
2023-02-12T06:20:29.818Z,8
2023-02-12T06:21:36.965Z,8
2023-02-12T06:22:43.537Z,8
2023-02-12T06:23:50.686Z,8
2023-02-12T06:24:57.773Z,8
2023-02-12T06:26:04.836Z,8
2023-02-12T06:27:11.954Z,8
2023-02-12T06:28:18.662Z,8
2023-02-12T06:29:25.657Z,8
2023-02-12T06:30:32.732Z,8
2023-02-12T06:31:39.983Z,8.1
2023-02-12T06:32:46.978Z,8
2023-02-12T06:33:53.609Z,8
2023-02-12T06:35:00.663Z,8
2023-02-12T06:36:07.788Z,8
2023-02-12T06:37:14.858Z,8
2023-02-12T06:38:22.047Z,8
2023-02-12T06:39:28.623Z,8.1
2023-02-12T06:40:35.670Z,8
2023-02-12T06:41:42.766Z,8
2023-02-12T06:42:50.477Z,8
2023-02-12T06:43:57.002Z,8
2023-02-12T06:45:03.558Z,8
2023-02-12T06:46:10.757Z,8
2023-02-12T06:47:17.790Z,8
2023-02-12T06:49:32.022Z,8
2023-02-12T06:50:38.621Z,8
2023-02-12T06:51:45.654Z,8
2023-02-12T06:52:52.754Z,8
2023-02-12T06:53:59.887Z,8
2023-02-12T06:55:07.023Z,7.9
2023-02-12T06:56:13.611Z,7.9
2023-02-12T06:57:20.661Z,7.9
2023-02-12T06:59:34.996Z,7.8
2023-02-12T07:00:42.041Z,7.8
2023-02-12T07:01:48.635Z,7.8
2023-02-12T07:02:55.689Z,7.8
2023-02-12T07:04:03.078Z,7.8
2023-02-12T07:05:09.922Z,7.7
2023-02-12T07:06:17.049Z,7.7
2023-02-12T07:07:23.570Z,7.7
2023-02-12T07:08:30.743Z,7.7
2023-02-12T07:09:37.839Z,7.7
2023-02-12T07:10:44.932Z,7.7
2023-02-12T07:11:52.009Z,7.7
2023-02-12T07:12:58.600Z,7.7
2023-02-12T07:14:05.720Z,7.7
2023-02-12T07:15:12.833Z,7.6
2023-02-12T07:16:19.940Z,7.6
2023-02-12T07:17:27.544Z,7.6
2023-02-12T07:18:33.671Z,7.6
2023-02-12T07:19:40.844Z,7.6
2023-02-12T07:20:47.824Z,7.7
2023-02-12T07:21:54.909Z,7.6
2023-02-12T07:23:02.064Z,7.6
2023-02-12T07:24:08.661Z,7.7
2023-02-12T07:25:15.699Z,7.7
2023-02-12T07:26:22.827Z,7.7
2023-02-12T07:27:29.964Z,7.6
2023-02-12T07:28:37.214Z,7.7
2023-02-12T07:29:43.594Z,7.6
2023-02-12T07:30:50.779Z,7.6
2023-02-12T07:31:57.995Z,7.6
2023-02-12T07:33:04.957Z,7.6
2023-02-12T07:34:12.091Z,7.6
2023-02-12T07:35:18.680Z,7.6
2023-02-12T07:36:25.717Z,7.5
2023-02-12T07:37:32.863Z,7.5
2023-02-12T07:38:40.125Z,7.5
2023-02-12T07:39:47.101Z,7.5
2023-02-12T07:40:53.653Z,7.5
2023-02-12T07:42:00.758Z,7.5
2023-02-12T07:43:07.883Z,7.5
2023-02-12T07:44:14.957Z,7.5
2023-02-12T07:45:22.070Z,7.5
2023-02-12T07:46:28.674Z,7.5
2023-02-12T07:47:35.798Z,7.5
2023-02-12T07:48:42.892Z,7.5
2023-02-12T07:49:50.018Z,7.5
2023-02-12T07:50:56.587Z,7.5
2023-02-12T07:52:03.645Z,7.5
2023-02-12T07:53:10.803Z,7.5
2023-02-12T07:54:17.924Z,7.5
2023-02-12T07:55:24.951Z,7.5
2023-02-12T07:56:31.575Z,7.5
2023-02-12T07:57:38.689Z,7.6
2023-02-12T07:58:45.871Z,7.6
2023-02-12T07:59:52.888Z,7.6
2023-02-12T08:01:00.037Z,7.6
2023-02-12T08:03:13.692Z,7.6
2023-02-12T08:04:20.889Z,7.6
2023-02-12T08:05:27.929Z,7.6
2023-02-12T08:06:34.979Z,7.6
2023-02-12T08:07:41.601Z,7.6
2023-02-12T08:08:48.751Z,7.6
2023-02-12T08:09:55.761Z,7.6
2023-02-12T08:11:02.868Z,7.6
2023-02-12T08:12:10.023Z,7.6
2023-02-12T08:13:16.690Z,7.6
2023-02-12T08:14:23.714Z,7.6
2023-02-12T08:15:30.821Z,7.6
2023-02-12T08:17:44.981Z,7.6
2023-02-12T08:18:51.710Z,7.6
2023-02-12T08:19:58.759Z,7.6
2023-02-12T08:21:06.328Z,7.6
2023-02-12T08:22:12.919Z,7.7
2023-02-12T08:23:20.095Z,7.6
2023-02-12T08:24:26.632Z,7.6
2023-02-12T08:25:33.686Z,7.6
2023-02-12T08:26:40.854Z,7.7
2023-02-12T08:27:47.963Z,7.6
2023-02-12T08:28:54.991Z,7.6
2023-02-12T08:30:01.634Z,7.6
2023-02-12T08:31:08.750Z,7.6
2023-02-12T08:32:15.864Z,7.6
2023-02-12T08:33:22.985Z,7.6
2023-02-12T08:34:30.089Z,7.6
2023-02-12T08:35:36.630Z,7.6
2023-02-12T08:36:43.727Z,7.6
2023-02-12T08:37:50.860Z,7.7
2023-02-12T08:38:57.976Z,7.7
2023-02-12T08:40:05.019Z,7.7
2023-02-12T08:41:11.627Z,7.7
2023-02-12T08:42:18.760Z,7.7
2023-02-12T08:43:25.903Z,7.7
2023-02-12T08:44:32.974Z,7.7
2023-02-12T08:45:40.098Z,7.7
2023-02-12T08:46:46.646Z,7.7
2023-02-12T08:47:53.705Z,7.6
2023-02-12T08:49:00.862Z,7.7
2023-02-12T08:50:07.985Z,7.7
2023-02-12T08:51:15.049Z,7.7
2023-02-12T08:52:21.652Z,7.7
2023-02-12T08:53:28.778Z,7.7
2023-02-12T08:54:35.867Z,7.7
2023-02-12T08:55:42.949Z,7.7
2023-02-12T08:56:50.082Z,7.7
2023-02-12T08:57:56.661Z,7.7
2023-02-12T08:59:03.709Z,7.8
2023-02-12T09:00:10.885Z,7.8
2023-02-12T09:01:18.044Z,7.8
2023-02-12T09:02:24.617Z,7.8
2023-02-12T09:03:31.690Z,7.8
2023-02-12T09:04:38.776Z,7.8
2023-02-12T09:06:52.965Z,7.8
2023-02-12T09:07:59.553Z,7.8
2023-02-12T09:09:06.674Z,7.8
2023-02-12T09:10:13.732Z,7.8
2023-02-12T09:11:20.867Z,7.8
2023-02-12T09:12:28.004Z,7.8
2023-02-12T09:13:34.611Z,7.9
2023-02-12T09:14:41.691Z,7.9
2023-02-12T09:15:48.802Z,7.9
2023-02-12T09:16:55.879Z,7.9
2023-02-12T09:18:02.994Z,7.9
2023-02-12T09:19:10.167Z,7.9
2023-02-12T09:20:16.769Z,7.9
2023-02-12T09:21:23.768Z,7.9
2023-02-12T09:22:30.935Z,7.9
2023-02-12T09:23:37.999Z,7.9
2023-02-12T09:24:45.588Z,7.9
2023-02-12T09:25:51.706Z,8
2023-02-12T09:26:58.781Z,7.9
2023-02-12T09:28:05.968Z,8
2023-02-12T09:29:13.060Z,8
2023-02-12T09:30:19.615Z,8
2023-02-12T09:31:27.055Z,8
2023-02-12T09:32:33.785Z,8.1
2023-02-12T09:33:40.934Z,8.1
2023-02-12T09:34:48.070Z,8.1
2023-02-12T09:35:55.042Z,8.1
2023-02-12T09:37:01.727Z,8.1
2023-02-12T09:38:08.846Z,8.1
2023-02-12T09:39:15.928Z,8.1
2023-02-12T09:40:23.031Z,8.2
2023-02-12T09:41:29.649Z,8.2
2023-02-12T09:42:36.698Z,8.2
2023-02-12T09:43:43.784Z,8.2
2023-02-12T09:45:58.471Z,8.2
2023-02-12T09:47:04.615Z,8.2
2023-02-12T09:48:11.748Z,8.2
2023-02-12T09:49:18.885Z,8.2
2023-02-12T09:50:25.915Z,8.2
2023-02-12T09:51:33.035Z,8.2
2023-02-12T09:52:39.613Z,8.2
2023-02-12T09:53:46.777Z,8.2
2023-02-12T09:54:53.850Z,8.2
2023-02-12T09:56:00.922Z,8.2
2023-02-12T09:57:08.050Z,8.2
2023-02-12T09:58:14.657Z,8.2
2023-02-12T09:59:21.750Z,8.2
2023-02-12T10:00:28.852Z,8.2
2023-02-12T10:01:36.030Z,8.2
2023-02-12T10:02:43.056Z,8.3
2023-02-12T10:03:49.640Z,8.3
2023-02-12T10:05:01.588Z,8.3
2023-02-12T10:06:03.862Z,8.3
2023-02-12T10:07:10.951Z,8.3
2023-02-12T10:08:19.523Z,8.3
2023-02-12T10:10:31.779Z,8.4
2023-02-12T10:11:38.899Z,8.4
2023-02-12T10:12:45.996Z,8.4
2023-02-12T10:13:53.085Z,8.4
2023-02-12T10:14:59.674Z,8.4
2023-02-12T10:16:06.838Z,8.4
2023-02-12T10:17:13.864Z,8.4
2023-02-12T10:18:21.008Z,8.4
2023-02-12T10:19:27.686Z,8.4
2023-02-12T10:20:34.624Z,8.5
2023-02-12T10:21:41.805Z,8.5
2023-02-12T10:22:56.444Z,8.5
2023-02-12T10:23:55.960Z,8.5
2023-02-12T10:25:02.573Z,8.5
2023-02-12T10:26:09.692Z,8.5
2023-02-12T10:27:16.812Z,8.5
2023-02-12T10:28:24.486Z,8.5
2023-02-12T10:29:31.056Z,8.6
2023-02-12T10:30:37.649Z,8.5
2023-02-12T10:31:44.836Z,8.6
2023-02-12T10:32:51.834Z,8.6
2023-02-12T10:33:58.894Z,8.6
2023-02-12T10:35:06.025Z,8.6
2023-02-12T10:36:12.561Z,8.6
2023-02-12T10:37:19.720Z,8.6
2023-02-12T10:38:26.828Z,8.6
2023-02-12T10:39:33.906Z,8.6
2023-02-12T10:40:41.062Z,8.7
2023-02-12T10:41:47.586Z,8.7
2023-02-12T10:42:54.697Z,8.7
2023-02-12T10:44:01.823Z,8.8
2023-02-12T10:45:08.899Z,8.7
2023-02-12T10:46:16.281Z,8.8
2023-02-12T10:47:22.605Z,8.8
2023-02-12T10:48:29.766Z,8.8
2023-02-12T10:49:36.829Z,8.8
2023-02-12T10:50:43.864Z,8.9
2023-02-12T10:51:50.996Z,8.9
2023-02-12T10:52:57.641Z,8.9
2023-02-12T10:54:05.409Z,8.9
2023-02-12T10:55:11.803Z,8.9
2023-02-12T10:56:18.902Z,8.9
2023-02-12T10:57:26.027Z,8.9
2023-02-12T10:58:32.695Z,8.9
2023-02-12T10:59:39.729Z,8.9
2023-02-12T11:00:46.813Z,8.9
2023-02-12T11:01:53.979Z,8.9
2023-02-12T11:03:01.030Z,8.9
2023-02-12T11:04:07.667Z,8.9
2023-02-12T11:05:14.780Z,8.9
2023-02-12T11:06:21.835Z,8.9
2023-02-12T11:07:28.901Z,8.9
2023-02-12T11:08:36.087Z,9
2023-02-12T11:09:42.586Z,9
2023-02-12T11:10:49.732Z,9
2023-02-12T11:11:56.833Z,9
2023-02-12T11:14:11.039Z,9
2023-02-12T11:15:17.631Z,9
2023-02-12T11:16:24.756Z,9.1
2023-02-12T11:17:31.977Z,9.1
2023-02-12T11:18:39.039Z,9.1
2023-02-12T11:19:46.084Z,9.1
2023-02-12T11:20:52.646Z,9.1
2023-02-12T11:21:59.792Z,9.1
2023-02-12T11:23:06.883Z,9.1
2023-02-12T11:24:13.945Z,9.1
2023-02-12T11:25:21.112Z,9.1
2023-02-12T11:26:27.636Z,9.1
2023-02-12T11:27:34.730Z,9.1
2023-02-12T11:28:42.018Z,9.1
2023-02-12T11:29:49.037Z,9.2
2023-02-12T11:30:56.191Z,9.2
2023-02-12T11:32:03.180Z,9.2
2023-02-12T11:33:09.755Z,9.3
2023-02-12T11:34:16.922Z,9.3
2023-02-12T11:35:23.924Z,9.3
2023-02-12T11:36:31.085Z,9.3
2023-02-12T11:37:37.696Z,9.3
2023-02-12T11:38:44.792Z,9.3
2023-02-12T11:39:51.927Z,9.3
2023-02-12T11:40:59.405Z,9.3
2023-02-12T11:42:05.556Z,9.4
2023-02-12T11:43:12.645Z,9.4
2023-02-12T11:44:19.774Z,9.4
2023-02-12T11:45:26.907Z,9.5
2023-02-12T11:46:34.028Z,9.4
2023-02-12T11:47:40.581Z,9.4
2023-02-12T11:48:47.781Z,9.5
2023-02-12T11:49:54.750Z,9.5
2023-02-12T11:51:01.900Z,9.5
2023-02-12T11:52:09.017Z,9.5
2023-02-12T11:53:15.629Z,9.5
2023-02-12T11:54:22.698Z,9.5
2023-02-12T11:55:32.346Z,9.5
2023-02-12T11:56:36.892Z,9.5
2023-02-12T11:57:43.966Z,9.4
2023-02-12T11:58:50.629Z,9.4
2023-02-12T11:59:57.677Z,9.4
2023-02-12T12:01:04.787Z,9.5
2023-02-12T12:02:11.960Z,9.5
2023-02-12T12:03:19.110Z,9.5
2023-02-12T12:04:25.579Z,9.5
2023-02-12T12:05:32.720Z,9.5
2023-02-12T12:06:39.765Z,9.5
2023-02-12T12:07:46.898Z,9.5
2023-02-12T12:08:54.104Z,9.5
2023-02-12T12:10:00.641Z,9.4
2023-02-12T12:11:07.710Z,9.5
2023-02-12T12:12:14.801Z,9.4
2023-02-12T12:13:21.940Z,9.4
2023-02-12T12:14:29.046Z,9.4
2023-02-12T12:15:35.614Z,9.4
2023-02-12T12:17:49.909Z,9.3
2023-02-12T12:18:56.991Z,9.3
2023-02-12T12:20:04.027Z,9.3
2023-02-12T12:21:10.624Z,9.3
2023-02-12T12:22:17.745Z,9.3
2023-02-12T12:23:24.819Z,9.3
2023-02-12T12:24:31.925Z,9.3
2023-02-12T12:25:39.019Z,9.3
2023-02-12T12:26:45.613Z,9.3
2023-02-12T12:27:52.717Z,9.3
2023-02-12T12:28:59.922Z,9.3
2023-02-12T12:30:06.945Z,9.3
2023-02-12T12:31:14.097Z,9.3
2023-02-12T12:32:20.589Z,9.3
2023-02-12T12:33:27.777Z,9.3
2023-02-12T12:34:34.878Z,9.3
2023-02-12T12:35:42.428Z,9.3
2023-02-12T12:36:51.293Z,9.3
2023-02-12T12:37:55.638Z,9.3
2023-02-12T12:39:02.791Z,9.3
2023-02-12T12:40:09.850Z,9.4
2023-02-12T12:42:24.023Z,9.4
2023-02-12T12:43:30.688Z,9.4
2023-02-12T12:44:37.766Z,9.4
2023-02-12T12:45:46.795Z,9.4
2023-02-12T12:46:51.954Z,9.4
2023-02-12T12:47:59.059Z,9.5
2023-02-12T12:49:05.612Z,9.5
2023-02-12T12:50:12.792Z,9.5
2023-02-12T12:51:19.899Z,9.5
2023-02-12T12:52:26.958Z,9.5
2023-02-12T12:53:33.622Z,9.6
2023-02-12T12:54:40.815Z,9.6
2023-02-12T12:55:47.778Z,9.7
2023-02-12T12:56:54.859Z,9.7
2023-02-12T12:58:01.967Z,9.7
2023-02-12T12:59:08.557Z,9.7
2023-02-12T13:00:15.652Z,9.7
2023-02-12T13:01:22.878Z,9.7
2023-02-12T13:02:30.052Z,9.7
2023-02-12T13:03:37.044Z,9.7
2023-02-12T13:04:43.569Z,9.7
2023-02-12T13:05:50.673Z,9.7
2023-02-12T13:06:57.807Z,9.7
2023-02-12T13:08:04.867Z,9.7
2023-02-12T13:09:11.964Z,9.7
2023-02-12T13:10:18.588Z,9.7
2023-02-12T13:11:25.644Z,9.6
2023-02-12T13:12:32.756Z,9.7
2023-02-12T13:13:39.962Z,9.6
2023-02-12T13:14:47.034Z,9.6
2023-02-12T13:15:53.700Z,9.6
2023-02-12T13:17:00.658Z,9.6
2023-02-12T13:18:07.804Z,9.6
2023-02-12T13:19:14.875Z,9.6
2023-02-12T13:21:28.587Z,9.6
2023-02-12T13:22:35.698Z,9.6
2023-02-12T13:23:42.868Z,9.6
2023-02-12T13:24:49.933Z,9.6
2023-02-12T13:25:57.331Z,9.5
2023-02-12T13:27:03.601Z,9.5
2023-02-12T13:28:10.733Z,9.5
2023-02-12T13:29:17.817Z,9.5
2023-02-12T13:30:24.928Z,9.5
2023-02-12T13:31:33.850Z,9.5
2023-02-12T13:32:38.643Z,9.5
2023-02-12T13:33:45.779Z,9.5
2023-02-12T13:34:52.820Z,9.5
2023-02-12T13:35:59.980Z,9.5
2023-02-12T13:37:07.077Z,9.5
2023-02-12T13:38:13.613Z,9.5
2023-02-12T13:39:21.268Z,9.6
2023-02-12T13:40:27.842Z,9.6
2023-02-12T13:41:34.904Z,9.6
2023-02-12T13:42:42.041Z,9.6
2023-02-12T13:43:48.685Z,9.6
2023-02-12T13:44:56.545Z,9.5
2023-02-12T13:46:02.852Z,9.6
2023-02-12T13:47:09.982Z,9.6
2023-02-12T13:48:16.551Z,9.6
2023-02-12T13:49:23.661Z,9.6
2023-02-12T13:50:30.729Z,9.6
2023-02-12T13:51:37.828Z,9.6
2023-02-12T13:52:44.937Z,9.6
2023-02-12T13:53:51.554Z,9.6
2023-02-12T13:54:58.671Z,9.5
2023-02-12T13:56:05.705Z,9.5
2023-02-12T13:57:12.849Z,9.5
2023-02-12T13:58:19.983Z,9.5
2023-02-12T13:59:27.141Z,9.5
2023-02-12T14:00:33.645Z,9.5
2023-02-12T14:01:40.811Z,9.5
2023-02-12T14:02:47.977Z,9.5
2023-02-12T14:03:54.974Z,9.5
2023-02-12T14:05:01.540Z,9.5
2023-02-12T14:06:08.671Z,9.5
2023-02-12T14:07:15.740Z,9.5
2023-02-12T14:08:22.824Z,9.5
2023-02-12T14:10:36.600Z,9.5
2023-02-12T14:11:43.652Z,9.5
2023-02-12T14:12:50.770Z,9.5
2023-02-12T14:13:57.882Z,9.5
2023-02-12T14:15:04.976Z,9.6
2023-02-12T14:16:11.601Z,9.6
2023-02-12T14:17:18.674Z,9.6
2023-02-12T14:18:25.729Z,9.6
2023-02-12T14:19:32.942Z,9.6
2023-02-12T14:20:40.013Z,9.6
2023-02-12T14:21:46.607Z,9.6
2023-02-12T14:22:54.457Z,9.6
2023-02-12T14:25:07.931Z,9.5
2023-02-12T14:26:14.949Z,9.5
2023-02-12T14:27:21.590Z,9.5
2023-02-12T14:28:28.785Z,9.5
2023-02-12T14:29:35.776Z,9.5
2023-02-12T14:30:42.997Z,9.5
2023-02-12T14:31:50.116Z,9.5
2023-02-12T14:32:56.586Z,9.5
2023-02-12T14:34:03.735Z,9.5
2023-02-12T14:35:10.787Z,9.5
2023-02-12T14:36:17.923Z,9.5
2023-02-12T14:37:24.960Z,9.5
2023-02-12T14:38:36.932Z,9.5
2023-02-12T14:39:38.695Z,9.5
2023-02-12T14:40:45.795Z,9.5
2023-02-12T14:41:52.862Z,9.5
2023-02-12T14:43:00.537Z,9.5
2023-02-12T14:44:06.713Z,9.5
2023-02-12T14:45:13.707Z,9.5
2023-02-12T14:46:20.935Z,9.4
2023-02-12T14:47:27.934Z,9.5
2023-02-12T14:48:34.978Z,9.5
2023-02-12T14:49:41.627Z,9.5
2023-02-12T14:50:48.705Z,9.5
2023-02-12T14:51:55.795Z,9.5
2023-02-12T14:53:02.882Z,9.5
2023-02-12T14:54:10.070Z,9.5
2023-02-12T14:55:16.653Z,9.5
2023-02-12T14:56:23.761Z,9.5
2023-02-12T14:57:30.826Z,9.5
2023-02-12T14:58:37.964Z,9.5
2023-02-12T14:59:44.992Z,9.5
2023-02-12T15:00:51.646Z,9.5
2023-02-12T15:01:58.756Z,9.5
2023-02-12T15:03:05.825Z,9.5
2023-02-12T15:04:12.979Z,9.5
2023-02-12T15:05:20.137Z,9.5
2023-02-12T15:06:26.625Z,9.5
2023-02-12T15:07:33.803Z,9.5
2023-02-12T15:08:40.877Z,9.5
2023-02-12T15:09:48.011Z,9.4
2023-02-12T15:10:55.029Z,9.4
2023-02-12T15:12:01.665Z,9.4
2023-02-12T15:13:08.732Z,9.4
2023-02-12T15:14:15.841Z,9.4
2023-02-12T15:15:22.922Z,9.4
2023-02-12T15:16:29.592Z,9.3
2023-02-12T15:17:36.727Z,9.3
2023-02-12T15:18:43.781Z,9.3
2023-02-12T15:19:50.918Z,9.2
2023-02-12T15:20:57.951Z,9.2
2023-02-12T15:22:04.552Z,9.2
2023-02-12T15:23:11.665Z,9.1
2023-02-12T15:24:18.767Z,9.1
2023-02-12T15:25:25.892Z,9
2023-02-12T15:26:32.946Z,9
2023-02-12T15:28:46.671Z,9
2023-02-12T15:29:53.828Z,9
2023-02-12T15:31:00.941Z,9
2023-02-12T15:32:08.012Z,9
2023-02-12T15:33:14.582Z,8.9
2023-02-12T15:34:21.685Z,8.9
2023-02-12T15:35:28.819Z,8.9
2023-02-12T15:36:35.922Z,8.9
2023-02-12T15:38:49.619Z,8.9
2023-02-12T15:39:56.666Z,9
2023-02-12T15:41:03.757Z,8.9
2023-02-12T15:42:10.905Z,8.9
2023-02-12T15:43:17.960Z,8.9
2023-02-12T15:44:24.535Z,8.9
2023-02-12T15:45:31.687Z,8.9
2023-02-12T15:46:39.300Z,8.9
2023-02-12T15:47:45.905Z,8.9
2023-02-12T15:48:52.958Z,8.9
2023-02-12T15:49:59.586Z,8.9